»·PEaware :: BEE185 KSNA-KUDD

BEE185 :: KSNA-KUDD

FLIGHT INFORMATION

Flight Status: Arrived
Operator:
Flybe
More flights by this operator :: More flights under this callsign
Pilot: Andrew Northall (12823)
Aircraft: BEECH AIRCRAFT BEECH AIRLINER
(B190)
More flights by this aircraft type
Origin: KSNA John Wayne-Orange Co
United States
Destination: KUDD Bermuda Dunes
United States
More flights between these airports :: More routes between these airports
Route: +SLI V64 TRM
File this flight plan on PilotEdge
Remarks:
Altitude:
(Current/Filed)
13,000ft
Speed:
(Current/Filed)
200kts
Departed: 10-Jan-17 04:30 PM
Arrived: 10-Jan-17 05:07 PM
Distance/Time
Traveled:
82nm/0:37
Distance/Time
To Go:
Arrived

Flight Plot

Page will automatically refresh every two minutes.

Flight plan parsing failed; only flown route is shown


Map Options




Map Legend


Flown Route
Filed Route
Departure Airport
Arrival Airport
Navaid (VOR, NDB)
Fix

Horizontal Profiles

Position Reports

Time Latitude Longitude Heading Altitude Ground
Speed
10-Jan-17 16:10 33.676212 -117.870593 102 5ft 0kts
10-Jan-17 16:11 33.676212 -117.870593 102 5ft 0kts
10-Jan-17 16:12 33.676212 -117.870593 102 5ft 0kts
10-Jan-17 16:13 33.676212 -117.870593 102 5ft 0kts
10-Jan-17 16:14 33.676212 -117.870593 102 5ft 0kts
10-Jan-17 16:15 33.676212 -117.870593 102 5ft 0kts
10-Jan-17 16:16 33.676212 -117.870593 102 5ft 0kts
10-Jan-17 16:17 33.676212 -117.870593 102 5ft 0kts
10-Jan-17 16:18 33.676212 -117.870593 102 5ft 0kts
10-Jan-17 16:19 33.676212 -117.870593 102 5ft 0kts
10-Jan-17 16:20 33.676212 -117.870593 102 5ft 0kts
10-Jan-17 16:21 33.676212 -117.870593 102 5ft 0kts
10-Jan-17 16:22 33.676212 -117.870593 102 5ft 0kts
10-Jan-17 16:23 33.676212 -117.870593 102 5ft 0kts
10-Jan-17 16:24 33.676212 -117.870593 102 5ft 0kts
10-Jan-17 16:25 33.676212 -117.870593 102 5ft 0kts
10-Jan-17 16:26 33.676214 -117.870455 62 5ft 0kts
10-Jan-17 16:27 33.678056 -117.868908 26 5ft 21kts
10-Jan-17 16:28 33.681963 -117.866043 86 5ft 8kts
10-Jan-17 16:29 33.681209 -117.865348 191 5ft 12kts
10-Jan-17 16:30 33.658657 -117.875649 187 958ft 150kts
10-Jan-17 16:31 33.616722 -117.877262 184 4165ft 147kts
10-Jan-17 16:32 33.570802 -117.870091 186 5027ft 173kts
10-Jan-17 16:33 33.525807 -117.864261 186 6844ft 156kts
10-Jan-17 16:34 33.484463 -117.857093 186 8863ft 154kts
10-Jan-17 16:35 33.461724 -117.876997 307 9053ft 171kts
10-Jan-17 16:36 33.518226 -117.896296 329 9036ft 222kts
10-Jan-17 16:37 33.574577 -117.926718 324 9033ft 224kts
10-Jan-17 16:38 33.630024 -117.960261 323 9032ft 224kts
10-Jan-17 16:39 33.685040 -117.994204 323 9032ft 225kts
10-Jan-17 16:40 33.738446 -118.027321 323 9008ft 226kts
10-Jan-17 16:41 33.791344 -118.031206 51 9791ft 247kts
10-Jan-17 16:42 33.782806 -117.964192 110 11053ft 248kts
10-Jan-17 16:43 33.772500 -117.898319 99 11854ft 280kts
10-Jan-17 16:44 33.765425 -117.816650 97 12730ft 293kts
10-Jan-17 16:45 33.758562 -117.727979 96 13031ft 307kts
10-Jan-17 16:46 33.751904 -117.641438 97 13034ft 297kts
10-Jan-17 16:47 33.745821 -117.563684 97 13022ft 295kts
10-Jan-17 16:48 33.738504 -117.471144 96 13011ft 294kts
10-Jan-17 16:49 33.730942 -117.376027 96 13030ft 293kts
10-Jan-17 16:50 33.723441 -117.279710 97 13020ft 293kts
10-Jan-17 16:51 33.715694 -117.182964 97 13021ft 292kts
10-Jan-17 16:52 33.707740 -117.086074 97 13022ft 292kts
10-Jan-17 16:53 33.699726 -116.989469 97 13022ft 292kts
10-Jan-17 16:54 33.691561 -116.891942 97 12944ft 294kts
10-Jan-17 16:55 33.683361 -116.794657 97 12944ft 293kts
10-Jan-17 16:56 33.675042 -116.697025 97 12599ft 307kts
10-Jan-17 16:57 33.666563 -116.597881 97 10842ft 294kts
10-Jan-17 16:58 33.658266 -116.502238 97 9094ft 286kts
10-Jan-17 16:59 33.653185 -116.414952 83 8500ft 257kts
10-Jan-17 17:00 33.667217 -116.332057 75 6808ft 251kts
10-Jan-17 17:01 33.686679 -116.253020 80 4538ft 243kts
10-Jan-17 17:02 33.677558 -116.180239 93 2739ft 209kts
10-Jan-17 17:03 33.710827 -116.163919 307 1669ft 121kts
10-Jan-17 17:04 33.718937 -116.200654 286 1330ft 125kts
10-Jan-17 17:05 33.732981 -116.237564 298 702ft 120kts
10-Jan-17 17:06 33.747023 -116.271356 296 65ft 72kts
10-Jan-17 17:07 33.748767 -116.276894 115 65ft 10kts
10-Jan-17 17:08 33.746513 -116.272370 353 65ft 0kts
10-Jan-17 17:09 33.746513 -116.272370 353 65ft 0kts
10-Jan-17 17:10 33.746513 -116.272370 353 65ft 0kts
10-Jan-17 17:11 33.746513 -116.272370 353 65ft 0kts
10-Jan-17 17:12 33.746513 -116.272370 353 65ft 0kts
10-Jan-17 17:13 33.746513 -116.272370 353 65ft 0kts
10-Jan-17 17:14 33.746513 -116.272370 353 65ft 0kts
10-Jan-17 17:15 33.746513 -116.272370 353 65ft 0kts
10-Jan-17 17:16 33.746513 -116.272370 353 65ft 0kts
10-Jan-17 17:17 33.749002 -116.277485 293 65ft 38kts
10-Jan-17 17:18 33.750026 -116.278775 115 66ft 99kts
10-Jan-17 17:19 33.719290 -116.247158 160 2556ft 184kts
10-Jan-17 17:20 33.662852 -116.235880 207 2927ft 211kts
10-Jan-17 17:21 33.603224 -116.230133 164 2911ft 237kts

Navigation Log

Ident Type Via Name
Flight plan parsing failed, navigation log unavailable